createdAt,value
2019-05-06T00:00:22.451Z,7.584534
2019-05-06T00:01:12.957Z,7.574463
2019-05-06T00:02:02.529Z,7.524109
2019-05-06T00:03:02.947Z,7.463684
2019-05-06T00:03:41.520Z,7.433472
2019-05-06T00:04:42.814Z,7.433472
2019-05-06T00:07:11.828Z,7.493896
2019-05-06T00:08:12.405Z,7.483826
2019-05-06T00:09:12.674Z,7.483826
2019-05-06T00:11:02.887Z,7.453613
2019-05-06T00:12:42.465Z,7.403259
2019-05-06T00:14:21.529Z,7.322693
2019-05-06T00:16:01.779Z,7.252197
2019-05-06T00:17:51.734Z,7.171631
2019-05-06T00:19:42.704Z,7.151489
2019-05-06T00:21:33.127Z,7.171631
2019-05-06T00:22:21.566Z,7.171631
2019-05-06T00:23:22.863Z,7.171631
2019-05-06T00:24:12.450Z,7.16156
2019-05-06T00:25:03.164Z,7.131348
2019-05-06T00:25:51.518Z,7.121277
2019-05-06T00:26:54.844Z,7.101135
2019-05-06T00:27:52.358Z,7.091064
2019-05-06T00:29:32.759Z,7.020569
2019-05-06T00:30:22.198Z,6.980286
2019-05-06T00:31:13.889Z,6.950073
2019-05-06T00:32:12.938Z,6.90979
2019-05-06T00:33:02.368Z,6.879578
2019-05-06T00:33:51.943Z,6.879578
2019-05-06T00:34:52.503Z,6.879578
2019-05-06T00:35:43.050Z,6.849365
2019-05-06T00:36:32.423Z,6.799011
2019-05-06T00:37:32.802Z,6.758728
2019-05-06T00:40:12.068Z,6.768799
2019-05-06T00:41:12.500Z,6.78894
2019-05-06T00:42:01.920Z,6.758728
2019-05-06T00:42:52.141Z,6.758728
2019-05-06T00:43:52.472Z,6.768799
2019-05-06T00:45:42.309Z,6.708374
2019-05-06T00:47:22.438Z,6.668091
2019-05-06T00:48:11.891Z,6.668091
2019-05-06T00:49:12.430Z,6.607666
2019-05-06T00:50:02.177Z,6.577454
2019-05-06T00:51:02.284Z,6.53717
2019-05-06T00:51:52.893Z,6.53717
2019-05-06T00:52:42.643Z,6.53717
2019-05-06T00:54:22.877Z,6.547241
2019-05-06T00:55:11.665Z,6.557312
2019-05-06T00:56:11.997Z,6.547241
2019-05-06T00:57:01.633Z,6.557312
2019-05-06T00:58:01.799Z,6.557312
2019-05-06T00:59:51.822Z,6.577454
2019-05-06T01:01:41.523Z,6.547241
2019-05-06T01:02:41.945Z,6.547241
2019-05-06T01:04:22.511Z,6.53717
2019-05-06T01:05:11.737Z,6.506958
2019-05-06T01:06:12.227Z,6.486816
2019-05-06T01:08:01.994Z,6.506958
2019-05-06T01:08:52.345Z,6.517029
2019-05-06T01:09:41.905Z,6.506958
2019-05-06T01:10:42.963Z,6.456604
2019-05-06T01:12:32.622Z,6.456604
2019-05-06T01:13:33.016Z,6.436462
2019-05-06T01:15:01.820Z,6.436462
2019-05-06T01:16:02.210Z,6.476746
2019-05-06T01:16:52.651Z,6.486816
2019-05-06T01:18:41.505Z,6.456604
2019-05-06T01:19:43.779Z,6.476746
2019-05-06T01:21:21.760Z,6.486816
2019-05-06T01:22:12.133Z,6.426392
2019-05-06T01:23:12.295Z,6.396179
2019-05-06T01:24:12.570Z,6.396179
2019-05-06T01:25:01.829Z,6.376038
2019-05-06T01:26:02.185Z,6.376038
2019-05-06T01:26:51.553Z,6.376038
2019-05-06T01:27:52.003Z,6.376038
2019-05-06T01:28:52.493Z,6.376038
2019-05-06T01:29:52.835Z,6.365967
2019-05-06T01:30:42.295Z,6.365967
2019-05-06T01:31:43.697Z,6.365967
2019-05-06T01:32:32.504Z,6.376038
2019-05-06T01:33:32.980Z,6.355896
2019-05-06T01:34:22.443Z,6.335754
2019-05-06T01:35:12.040Z,6.355896
2019-05-06T01:36:02.616Z,6.355896
2019-05-06T01:37:52.634Z,6.305542
2019-05-06T01:39:41.646Z,6.305542
2019-05-06T01:40:42.120Z,6.325684
2019-05-06T01:41:42.608Z,6.335754
2019-05-06T01:42:42.772Z,6.325684
2019-05-06T01:44:31.893Z,6.325684
2019-05-06T01:46:11.979Z,6.355896
2019-05-06T01:47:12.522Z,6.355896
2019-05-06T01:48:01.975Z,6.335754
2019-05-06T01:48:42.368Z,6.355896
2019-05-06T01:50:32.409Z,6.355896
2019-05-06T01:51:32.563Z,6.335754
2019-05-06T01:52:21.991Z,6.355896
2019-05-06T01:53:12.117Z,6.355896
2019-05-06T01:54:01.648Z,6.355896
2019-05-06T01:55:02.863Z,6.355896
2019-05-06T01:56:51.840Z,6.305542
2019-05-06T01:58:31.569Z,6.27533
2019-05-06T01:59:31.888Z,6.224976
2019-05-06T02:00:32.459Z,6.194763
2019-05-06T02:02:21.724Z,6.144409
2019-05-06T02:03:22.204Z,6.15448
2019-05-06T02:04:22.410Z,6.174622
2019-05-06T02:05:11.820Z,6.15448
2019-05-06T02:06:02.907Z,6.15448
2019-05-06T02:07:52.945Z,6.144409
2019-05-06T02:09:42.714Z,6.174622
2019-05-06T02:11:31.625Z,6.184692
2019-05-06T02:12:32.161Z,6.194763
2019-05-06T02:14:11.964Z,6.144409
2019-05-06T02:15:12.564Z,6.15448
2019-05-06T02:16:02.071Z,6.15448
2019-05-06T02:16:52.272Z,6.15448
2019-05-06T02:17:52.994Z,6.174622
2019-05-06T02:20:31.902Z,6.114197
2019-05-06T02:21:24.351Z,6.063843
2019-05-06T02:22:51.912Z,6.03363
2019-05-06T02:25:32.062Z,6.03363
2019-05-06T02:26:32.347Z,6.013489
2019-05-06T02:27:22.642Z,5.993347
2019-05-06T02:30:02.060Z,6.003418
2019-05-06T02:31:42.790Z,6.013489
2019-05-06T02:32:32.681Z,6.003418
2019-05-06T02:33:32.803Z,6.03363
2019-05-06T02:34:32.949Z,6.043701
2019-05-06T02:36:12.080Z,6.003418
2019-05-06T02:38:01.824Z,5.942993
2019-05-06T02:39:11.175Z,5.963135
2019-05-06T02:41:00.618Z,5.932922
2019-05-06T02:42:51.017Z,5.892639
2019-05-06T02:43:51.367Z,5.892639
2019-05-06T02:46:30.696Z,5.862427
2019-05-06T02:47:31.194Z,5.892639
2019-05-06T02:50:40.205Z,5.822144
2019-05-06T02:51:41.285Z,5.812073
2019-05-06T02:54:10.846Z,5.822144
2019-05-06T02:55:03.287Z,5.812073
2019-05-06T02:56:30.438Z,5.832214
2019-05-06T03:00:01.285Z,5.852356
2019-05-06T03:01:51.023Z,5.791931
2019-05-06T03:02:50.986Z,5.791931
2019-05-06T03:03:50.597Z,5.812073
2019-05-06T03:05:40.780Z,5.852356
2019-05-06T03:06:41.555Z,5.892639
2019-05-06T03:07:30.015Z,5.912781
2019-05-06T03:08:30.167Z,5.912781
2019-05-06T03:09:31.314Z,5.942993
2019-05-06T03:10:21.149Z,5.942993
2019-05-06T03:11:21.220Z,5.912781
2019-05-06T03:13:11.174Z,5.862427
2019-05-06T03:14:00.423Z,5.862427
2019-05-06T03:15:51.132Z,5.852356
2019-05-06T03:17:40.711Z,5.852356
2019-05-06T03:18:29.995Z,5.852356
2019-05-06T03:19:31.439Z,5.90271
2019-05-06T03:20:20.937Z,5.912781
2019-05-06T03:21:21.494Z,5.942993
2019-05-06T03:22:00.351Z,5.963135
2019-05-06T03:23:00.611Z,5.973206
2019-05-06T03:24:51.436Z,5.973206
2019-05-06T03:26:41.097Z,5.963135
2019-05-06T03:28:19.994Z,5.973206
2019-05-06T03:29:22.494Z,5.942993
2019-05-06T03:30:11.304Z,5.942993
2019-05-06T03:31:00.834Z,5.963135
2019-05-06T03:32:01.655Z,6.003418
2019-05-06T03:34:05.572Z,6.003418
2019-05-06T03:35:07.327Z,5.993347
2019-05-06T03:36:42.050Z,6.013489
2019-05-06T03:37:30.769Z,6.013489
2019-05-06T03:38:20.115Z,6.013489
2019-05-06T03:39:20.493Z,6.003418
2019-05-06T03:41:11.003Z,6.003418
2019-05-06T03:42:01.487Z,6.013489
2019-05-06T03:44:50.339Z,6.043701
2019-05-06T03:45:50.975Z,6.043701
2019-05-06T03:46:50.988Z,6.03363
2019-05-06T03:47:51.214Z,6.03363
2019-05-06T03:49:40.094Z,6.013489
2019-05-06T03:50:41.165Z,6.003418
2019-05-06T03:53:30.154Z,5.963135
2019-05-06T03:54:31.139Z,5.932922
2019-05-06T03:55:31.261Z,5.912781
2019-05-06T03:56:20.989Z,5.90271
2019-05-06T03:57:20.270Z,5.892639
2019-05-06T03:58:10.705Z,5.862427
2019-05-06T03:59:00.173Z,5.852356
2019-05-06T04:00:00.979Z,5.852356
2019-05-06T04:01:01.137Z,5.852356
2019-05-06T04:01:50.785Z,5.822144
2019-05-06T04:02:40.851Z,5.812073
2019-05-06T04:03:48.433Z,5.78186
2019-05-06T04:04:40.879Z,5.761719
2019-05-06T04:05:41.090Z,5.78186
2019-05-06T04:06:30.578Z,5.78186
2019-05-06T04:07:31.163Z,5.751648
2019-05-06T04:08:21.175Z,5.741577
2019-05-06T04:09:21.135Z,5.721436
2019-05-06T04:12:10.184Z,5.640869
2019-05-06T04:13:10.489Z,5.65094
2019-05-06T04:14:10.808Z,5.65094
2019-05-06T04:15:11.123Z,5.65094
2019-05-06T04:17:00.753Z,5.65094
2019-05-06T04:18:01.247Z,5.65094
2019-05-06T04:18:50.686Z,5.671082
2019-05-06T04:19:50.262Z,5.640869
2019-05-06T04:20:50.233Z,5.640869
2019-05-06T04:21:50.249Z,5.610657
2019-05-06T04:23:41.013Z,5.540161
2019-05-06T04:24:30.928Z,5.53009
2019-05-06T04:25:31.384Z,5.479736
2019-05-06T04:27:20.385Z,5.459595
2019-05-06T04:28:20.848Z,5.459595
2019-05-06T04:29:21.299Z,5.459595
2019-05-06T04:30:10.574Z,5.449524
2019-05-06T04:31:00.031Z,5.429382
2019-05-06T04:32:00.558Z,5.449524
2019-05-06T04:32:50.189Z,5.479736
2019-05-06T04:34:40.215Z,5.459595
2019-05-06T04:37:21.188Z,5.489807
2019-05-06T04:39:10.152Z,5.53009
2019-05-06T04:40:10.365Z,5.53009
2019-05-06T04:41:10.731Z,5.53009
2019-05-06T04:42:11.269Z,5.540161
2019-05-06T04:43:59.974Z,5.540161
2019-05-06T04:45:01.200Z,5.580444
2019-05-06T04:46:51.316Z,5.600586
2019-05-06T04:47:40.968Z,5.580444
2019-05-06T04:48:30.253Z,5.600586
2019-05-06T04:50:21.076Z,5.580444
2019-05-06T04:51:21.511Z,5.640869
2019-05-06T04:52:10.866Z,5.640869
2019-05-06T04:53:11.168Z,5.65094
2019-05-06T04:55:00.180Z,5.671082
2019-05-06T04:56:00.510Z,5.681152
2019-05-06T04:57:02.201Z,5.711365
2019-05-06T04:57:50.774Z,5.721436
2019-05-06T04:58:50.978Z,5.721436
2019-05-06T04:59:51.412Z,5.721436
2019-05-06T05:01:42.441Z,5.741577
2019-05-06T05:02:30.880Z,5.741577
2019-05-06T05:04:24.195Z,5.822144
2019-05-06T05:05:00.848Z,5.852356
2019-05-06T05:05:50.168Z,5.862427
2019-05-06T05:07:40.210Z,5.90271
2019-05-06T05:09:30.088Z,5.892639
2019-05-06T05:11:20.118Z,5.892639
2019-05-06T05:13:10.143Z,5.90271
2019-05-06T05:14:10.801Z,5.912781
2019-05-06T05:16:00.139Z,5.942993
2019-05-06T05:17:40.141Z,5.963135
2019-05-06T05:18:29.866Z,5.973206
2019-05-06T05:19:30.611Z,5.973206
2019-05-06T05:20:37.462Z,5.973206
2019-05-06T05:22:19.990Z,5.993347
2019-05-06T05:23:20.830Z,5.993347
2019-05-06T05:24:10.033Z,6.003418
2019-05-06T05:26:00.704Z,6.03363
2019-05-06T05:27:01.056Z,6.043701
2019-05-06T05:28:51.225Z,6.114197
2019-05-06T05:29:40.202Z,6.124268
2019-05-06T05:30:30.732Z,6.124268
2019-05-06T05:31:20.954Z,6.144409
2019-05-06T05:32:00.149Z,6.144409
2019-05-06T05:32:50.109Z,6.144409
2019-05-06T05:33:40.277Z,6.15448
2019-05-06T05:34:41.476Z,6.184692
2019-05-06T05:36:21.168Z,6.214905
2019-05-06T05:39:40.572Z,6.245117
2019-05-06T05:40:30.165Z,6.224976
2019-05-06T05:41:10.108Z,6.214905
2019-05-06T05:42:00.980Z,6.214905
2019-05-06T05:42:50.028Z,6.224976
2019-05-06T05:43:40.410Z,6.224976
2019-05-06T05:44:41.197Z,6.245117
2019-05-06T05:45:20.188Z,6.245117
2019-05-06T05:48:00.866Z,6.305542
2019-05-06T05:48:49.848Z,6.325684
2019-05-06T05:49:50.836Z,6.325684
2019-05-06T05:50:39.887Z,6.355896
2019-05-06T05:51:29.964Z,6.365967
2019-05-06T05:52:20.042Z,6.376038
2019-05-06T05:53:10.044Z,6.40625
2019-05-06T05:54:00.072Z,6.40625
2019-05-06T05:54:49.964Z,6.40625
2019-05-06T05:58:21.389Z,6.456604
2019-05-06T05:59:10.176Z,6.476746
2019-05-06T06:00:49.973Z,6.506958
2019-05-06T06:01:41.124Z,6.53717
2019-05-06T06:02:31.068Z,6.53717
2019-05-06T06:03:20.091Z,6.557312
2019-05-06T06:04:10.961Z,6.587524
2019-05-06T06:05:00.033Z,6.587524
2019-05-06T06:06:00.963Z,6.607666
2019-05-06T06:06:49.968Z,6.617737
2019-05-06T06:07:50.978Z,6.668091
2019-05-06T06:08:41.045Z,6.668091
2019-05-06T06:09:30.859Z,6.688232
2019-05-06T06:10:20.383Z,6.698303
2019-05-06T06:11:10.316Z,6.708374
2019-05-06T06:13:50.294Z,6.78894
2019-05-06T06:14:41.169Z,6.768799
2019-05-06T06:15:30.967Z,6.78894
2019-05-06T06:16:21.281Z,6.809082
2019-05-06T06:17:30.532Z,6.849365
2019-05-06T06:18:10.694Z,6.849365
2019-05-06T06:19:01.081Z,6.849365
2019-05-06T06:19:51.337Z,6.869507
2019-05-06T06:20:40.408Z,6.879578
2019-05-06T06:21:30.049Z,6.879578
2019-05-06T06:22:20.752Z,6.879578
2019-05-06T06:23:11.447Z,6.90979
2019-05-06T06:24:00.564Z,6.919861
2019-05-06T06:24:50.433Z,6.940002
2019-05-06T06:25:40.221Z,6.940002
2019-05-06T06:26:40.847Z,6.950073
2019-05-06T06:30:10.893Z,6.970215
2019-05-06T06:32:01.084Z,7.020569
2019-05-06T06:32:50.743Z,6.990356
2019-05-06T06:33:40.015Z,7.020569
2019-05-06T06:34:40.587Z,7.050781
2019-05-06T06:38:10.341Z,7.121277
2019-05-06T06:39:00.017Z,7.131348
2019-05-06T06:42:31.367Z,7.201843
2019-05-06T06:43:21.085Z,7.201843
2019-05-06T06:44:11.174Z,7.211914
2019-05-06T06:45:00.967Z,7.242126
2019-05-06T06:46:40.870Z,7.302551
2019-05-06T06:47:30.082Z,7.312622
2019-05-06T06:48:20.940Z,7.342834
2019-05-06T06:49:10.729Z,7.352905
2019-05-06T06:50:00.530Z,7.393188
2019-05-06T06:50:50.151Z,7.423401
2019-05-06T06:51:50.937Z,7.463684
2019-05-06T06:52:39.919Z,7.493896
2019-05-06T06:53:30.705Z,7.524109
2019-05-06T06:55:20.612Z,7.634888
2019-05-06T06:57:10.582Z,7.705383
2019-05-06T06:59:00.355Z,7.78595
2019-05-06T07:00:01.297Z,7.826233
2019-05-06T07:00:51.140Z,7.866516
2019-05-06T07:01:40.197Z,7.896729
2019-05-06T07:02:41.170Z,7.926941
2019-05-06T07:03:30.661Z,7.926941
2019-05-06T07:04:20.796Z,7.947083
2019-05-06T07:06:00.263Z,8.017578
2019-05-06T07:06:51.098Z,8.047791
2019-05-06T07:07:44.754Z,8.098145
2019-05-06T07:09:21.100Z,8.158569
2019-05-06T07:10:10.136Z,8.188782
2019-05-06T07:11:11.052Z,8.188782
2019-05-06T07:12:01.037Z,8.218994
2019-05-06T07:12:51.294Z,8.249207
2019-05-06T07:13:40.155Z,8.279419
2019-05-06T07:14:30.300Z,8.299561
2019-05-06T07:15:31.345Z,8.359985
2019-05-06T07:16:21.447Z,8.370056
2019-05-06T07:17:11.269Z,8.400269
2019-05-06T07:18:50.265Z,8.450623
2019-05-06T07:21:20.299Z,8.561401
2019-05-06T07:22:21.167Z,8.611755
2019-05-06T07:22:59.878Z,8.631897
2019-05-06T07:24:50.567Z,8.732605
2019-05-06T07:25:40.463Z,8.772888
2019-05-06T07:28:11.331Z,8.913879
2019-05-06T07:29:03.830Z,8.964233
2019-05-06T07:29:50.078Z,9.024658
2019-05-06T07:32:30.601Z,9.165649
2019-05-06T07:34:00.581Z,9.236145
2019-05-06T07:35:50.562Z,9.236145
2019-05-06T07:36:41.027Z,9.276428
2019-05-06T07:38:30.390Z,9.346924
2019-05-06T07:39:31.061Z,9.387207
2019-05-06T07:40:19.880Z,9.457703
2019-05-06T07:42:11.156Z,9.497986
2019-05-06T07:43:00.017Z,9.528198
2019-05-06T07:43:39.881Z,9.538269
2019-05-06T07:45:30.709Z,9.638977
2019-05-06T07:46:20.563Z,9.649048
2019-05-06T07:48:01.342Z,9.689331
2019-05-06T07:50:31.116Z,9.749756
2019-05-06T07:51:21.701Z,9.790039
2019-05-06T07:52:10.094Z,9.810181
2019-05-06T07:53:11.376Z,9.840393
2019-05-06T07:53:50.239Z,9.870605
2019-05-06T07:54:51.123Z,9.910889
2019-05-06T07:55:40.039Z,9.961243
2019-05-06T07:58:11.468Z,10.072021
2019-05-06T07:59:01.139Z,10.112305
2019-05-06T07:59:50.358Z,10.142517
2019-05-06T08:00:40.082Z,10.202942
2019-05-06T08:01:31.070Z,10.233154
2019-05-06T08:02:20.535Z,10.263367
2019-05-06T08:05:00.270Z,10.384216
2019-05-06T08:05:55.646Z,10.444641
2019-05-06T08:07:30.811Z,10.515137
2019-05-06T08:08:20.634Z,10.525208
2019-05-06T08:09:10.515Z,10.545349
2019-05-06T08:10:40.234Z,10.595703
2019-05-06T08:11:31.043Z,10.656128
2019-05-06T08:12:19.889Z,10.67627
2019-05-06T08:13:10.823Z,10.696411
2019-05-06T08:14:00.052Z,10.696411
2019-05-06T08:15:50.682Z,10.696411
2019-05-06T08:16:51.096Z,10.666199
2019-05-06T08:17:39.964Z,10.706482
2019-05-06T08:18:40.258Z,10.706482
2019-05-06T08:21:30.642Z,10.696411
2019-05-06T08:22:31.371Z,10.726624
2019-05-06T08:23:19.929Z,10.696411
2019-05-06T08:24:31.286Z,10.756836
2019-05-06T08:26:20.219Z,10.887756
2019-05-06T08:27:20.651Z,10.968323
2019-05-06T08:28:20.411Z,11.028748
2019-05-06T08:29:30.969Z,11.109314
2019-05-06T08:30:30.256Z,11.169739
2019-05-06T08:31:30.713Z,11.220093
2019-05-06T08:32:30.052Z,11.280518
2019-05-06T08:33:41.023Z,11.351013
2019-05-06T08:35:31.200Z,11.43158
2019-05-06T08:36:20.548Z,11.401367
2019-05-06T08:37:10.028Z,11.421509
2019-05-06T08:38:09.981Z,11.401367
2019-05-06T08:42:11.298Z,11.44165
2019-05-06T08:43:10.862Z,11.43158
2019-05-06T08:44:10.703Z,11.421509
2019-05-06T08:45:50.701Z,11.44165
2019-05-06T08:46:40.645Z,11.492004
2019-05-06T08:47:40.281Z,11.552429
2019-05-06T08:48:30.518Z,11.602783
2019-05-06T08:49:29.864Z,11.622925
2019-05-06T08:52:19.824Z,11.784058
2019-05-06T08:53:01.580Z,11.804199
2019-05-06T08:53:51.215Z,11.804199
2019-05-06T08:56:20.028Z,11.94519
2019-05-06T08:57:51.063Z,12.005615
2019-05-06T08:58:19.981Z,12.015686
2019-05-06T08:59:00.945Z,12.045898
2019-05-06T08:59:29.870Z,12.06604
2019-05-06T09:00:10.724Z,12.06604
2019-05-06T09:00:51.090Z,12.116394
2019-05-06T09:03:11.482Z,12.19696
2019-05-06T09:05:40.449Z,12.277527
2019-05-06T09:06:31.176Z,12.31781
2019-05-06T09:07:21.784Z,12.31781
2019-05-06T09:08:11.443Z,12.388306
2019-05-06T09:09:50.707Z,12.418518
2019-05-06T09:11:40.717Z,12.368164
2019-05-06T09:12:40.348Z,12.337952
2019-05-06T09:13:40.823Z,12.388306
2019-05-06T09:14:30.380Z,12.468872
2019-05-06T09:15:30.596Z,12.539368
2019-05-06T09:16:30.793Z,12.640076
2019-05-06T09:17:31.017Z,12.680359
2019-05-06T09:18:21.754Z,12.720642
2019-05-06T09:19:20.934Z,12.82135
2019-05-06T09:20:21.258Z,12.891846
2019-05-06T09:21:10.101Z,12.972412
2019-05-06T09:22:21.204Z,13.032837
2019-05-06T09:23:20.477Z,13.113403
2019-05-06T09:24:20.792Z,13.254395
2019-05-06T09:25:20.941Z,13.264465
2019-05-06T09:26:20.087Z,13.334961
2019-05-06T09:27:20.571Z,13.334961
2019-05-06T09:28:31.475Z,13.334961
2019-05-06T09:30:20.344Z,13.667297
2019-05-06T09:31:20.880Z,13.657227
2019-05-06T09:33:00.575Z,13.808289
2019-05-06T09:34:00.306Z,13.908997
2019-05-06T09:35:10.918Z,14.029846
2019-05-06T09:36:10.303Z,14.070129
2019-05-06T09:37:21.122Z,14.20105
2019-05-06T09:38:10.646Z,14.251404
2019-05-06T09:39:10.776Z,14.33197
2019-05-06T09:40:10.547Z,14.392395
2019-05-06T09:41:01.010Z,14.422607
2019-05-06T09:42:00.146Z,14.321899
2019-05-06T09:43:11.031Z,14.180908
2019-05-06T09:44:10.120Z,14.090271
2019-05-06T09:45:20.728Z,13.999634
2019-05-06T09:47:20.672Z,14.150696
2019-05-06T09:49:20.706Z,14.291687
2019-05-06T09:51:19.916Z,14.503174
2019-05-06T09:52:20.686Z,14.573669
2019-05-06T09:53:31.224Z,14.644165
2019-05-06T09:54:20.810Z,14.765015
2019-05-06T09:55:19.950Z,14.936218
2019-05-06T09:56:31.160Z,15.026855
2019-05-06T09:57:30.420Z,15.157776
2019-05-06T09:58:29.951Z,15.137634
2019-05-06T09:59:30.121Z,15.127563
2019-05-06T10:00:40.600Z,15.248413
2019-05-06T10:01:50.299Z,15.389404
2019-05-06T10:03:00.604Z,15.621033
2019-05-06T10:04:10.927Z,15.96344
2019-05-06T10:05:09.858Z,16.154785
2019-05-06T10:06:30.509Z,16.638184
2019-05-06T10:09:50.131Z,17.695618
2019-05-06T10:11:00.909Z,18.22937
2019-05-06T10:12:10.443Z,18.692627
2019-05-06T10:13:10.558Z,19.024963
2019-05-06T10:14:21.130Z,19.176025
2019-05-06T10:15:10.582Z,18.924255
2019-05-06T10:16:10.718Z,19.125671
2019-05-06T10:19:40.643Z,18.571777
2019-05-06T10:20:40.054Z,18.370361
2019-05-06T10:22:01.285Z,18.370361
2019-05-06T10:23:00.796Z,18.078308
2019-05-06T10:23:59.855Z,17.917175
2019-05-06T10:25:20.357Z,17.625122
2019-05-06T10:26:21.301Z,17.312927
2019-05-06T10:27:20.601Z,17.262573
2019-05-06T10:28:30.554Z,16.980591
2019-05-06T10:29:41.070Z,16.668396
2019-05-06T10:31:50.262Z,16.023865
2019-05-06T10:33:00.029Z,15.762024
2019-05-06T10:34:10.999Z,15.59082
2019-05-06T10:35:11.056Z,15.59082
2019-05-06T10:36:10.806Z,15.621033
2019-05-06T10:37:15.106Z,15.721741
2019-05-06T10:38:20.715Z,15.782166
2019-05-06T10:40:57.050Z,15.923157
2019-05-06T10:41:40.108Z,15.892944
2019-05-06T10:43:00.612Z,15.862732
2019-05-06T10:45:10.378Z,15.822449
2019-05-06T10:46:20.369Z,15.802307
2019-05-06T10:47:31.077Z,15.923157
2019-05-06T10:48:20.224Z,15.84259
2019-05-06T10:49:31.391Z,15.862732
2019-05-06T10:51:40.556Z,15.469971
2019-05-06T10:53:40.127Z,15.228271
2019-05-06T10:54:40.133Z,15.59082
2019-05-06T10:55:51.218Z,15.510254
2019-05-06T10:56:54.491Z,15.248413
2019-05-06T10:57:50.930Z,15.026855
2019-05-06T10:58:50.445Z,14.875793
2019-05-06T11:01:01.209Z,15.33905
2019-05-06T11:01:40.262Z,15.228271
2019-05-06T11:02:50.299Z,14.986572
2019-05-06T11:04:00.722Z,14.83551
2019-05-06T11:05:00.158Z,14.825439
2019-05-06T11:06:10.824Z,15.228271
2019-05-06T11:08:00.325Z,15.268555
2019-05-06T11:09:11.220Z,15.228271
2019-05-06T11:10:21.384Z,15.349121
2019-05-06T11:11:12.183Z,15.20813
2019-05-06T11:12:41.135Z,15.057068
2019-05-06T11:13:30.138Z,14.986572
2019-05-06T11:14:29.954Z,14.805298
2019-05-06T11:15:40.916Z,14.654236
2019-05-06T11:18:50.948Z,14.211121
2019-05-06T11:19:51.174Z,13.94928
2019-05-06T11:20:41.053Z,13.778076
2019-05-06T11:21:30.658Z,13.69751
2019-05-06T11:22:22.098Z,13.667297
2019-05-06T11:24:02.873Z,13.888855
2019-05-06T11:25:40.996Z,13.768005
2019-05-06T11:27:28.575Z,13.586731
2019-05-06T11:29:10.195Z,13.546448
2019-05-06T11:30:10.801Z,13.486023
2019-05-06T11:30:59.975Z,13.506165
2019-05-06T11:31:51.228Z,13.475952
2019-05-06T11:32:41.934Z,13.506165
2019-05-06T11:33:50.603Z,13.516235
2019-05-06T11:35:01.056Z,13.586731
2019-05-06T11:35:50.198Z,13.627014
2019-05-06T11:36:50.077Z,14.100342
2019-05-06T11:37:51.618Z,14.543457
2019-05-06T11:38:50.323Z,14.654236
2019-05-06T11:39:50.541Z,14.694519
2019-05-06T11:40:50.282Z,14.734802
2019-05-06T11:42:06.009Z,14.765015
2019-05-06T11:42:50.206Z,14.805298
2019-05-06T11:43:50.199Z,14.754944
2019-05-06T11:45:00.871Z,14.513245
2019-05-06T11:45:50.085Z,14.392395
2019-05-06T11:47:00.939Z,14.352112
2019-05-06T11:47:51.327Z,14.271545
2019-05-06T11:48:50.159Z,14.221191
2019-05-06T11:49:53.704Z,14.180908
2019-05-06T11:52:40.406Z,14.251404
2019-05-06T11:55:34.278Z,14.362183
2019-05-06T11:56:48.610Z,14.372253
2019-05-06T11:57:30.629Z,14.251404
2019-05-06T11:58:20.158Z,14.180908
2019-05-06T11:59:20.220Z,14.150696
2019-05-06T12:00:21.764Z,14.120483
2019-05-06T12:02:10.502Z,13.969421
2019-05-06T12:03:21.226Z,13.919067
2019-05-06T12:04:11.541Z,13.878784
2019-05-06T12:05:00.118Z,13.818359
2019-05-06T12:06:01.386Z,13.727722
2019-05-06T12:06:50.172Z,13.707581
2019-05-06T12:07:41.039Z,13.637085
2019-05-06T12:08:41.058Z,13.596802
2019-05-06T12:09:30.255Z,13.566589
2019-05-06T12:10:31.114Z,13.536377
2019-05-06T12:11:21.107Z,13.506165
2019-05-06T12:13:31.409Z,13.44574
2019-05-06T12:14:20.540Z,13.405457
2019-05-06T12:16:30.677Z,13.254395
2019-05-06T12:18:20.138Z,13.284607
2019-05-06T12:19:20.283Z,13.294678
2019-05-06T12:21:08.923Z,13.455811
2019-05-06T12:22:50.767Z,13.637085
2019-05-06T12:23:31.202Z,13.69751
2019-05-06T12:25:20.027Z,13.788147
2019-05-06T12:28:10.206Z,13.888855
2019-05-06T12:29:10.578Z,13.888855
2019-05-06T12:30:50.029Z,13.908997
2019-05-06T12:32:01.279Z,13.919067
2019-05-06T12:32:50.437Z,13.94928
2019-05-06T12:33:30.536Z,13.959351
2019-05-06T12:35:10.311Z,13.989563
2019-05-06T12:36:10.607Z,14.019775
2019-05-06T12:37:09.914Z,14.039917
2019-05-06T12:38:27.301Z,14.070129
2019-05-06T12:39:20.882Z,14.100342
2019-05-06T12:40:10.544Z,14.090271
2019-05-06T12:41:11.143Z,13.959351
2019-05-06T12:42:51.024Z,13.908997
2019-05-06T12:45:30.279Z,13.727722
2019-05-06T12:46:30.957Z,13.627014
2019-05-06T12:48:10.256Z,13.546448
2019-05-06T12:49:10.332Z,13.566589
2019-05-06T12:50:00.076Z,13.596802
2019-05-06T12:52:50.148Z,13.657227
2019-05-06T12:53:40.360Z,13.667297
2019-05-06T12:54:30.975Z,13.707581
2019-05-06T12:55:31.314Z,13.788147
2019-05-06T12:57:31.473Z,13.888855
2019-05-06T12:58:20.883Z,13.888855
2019-05-06T12:59:20.042Z,13.908997
2019-05-06T13:00:20.694Z,13.888855
2019-05-06T13:02:21.245Z,13.919067
2019-05-06T13:03:21.087Z,13.908997
2019-05-06T13:04:39.816Z,13.919067
2019-05-06T13:05:10.357Z,13.919067
2019-05-06T13:06:10.525Z,13.868713
2019-05-06T13:08:12.356Z,13.778076
2019-05-06T13:09:02.295Z,13.707581
2019-05-06T13:10:31.387Z,13.687439
2019-05-06T13:12:10.107Z,13.687439
2019-05-06T13:13:57.272Z,13.778076
2019-05-06T13:14:40.904Z,13.818359
2019-05-06T13:16:10.207Z,13.848572
2019-05-06T13:17:00.332Z,13.838501
2019-05-06T13:18:01.762Z,13.818359
2019-05-06T13:19:50.333Z,13.838501
2019-05-06T13:21:40.045Z,13.878784
2019-05-06T13:24:30.320Z,13.94928
2019-05-06T13:25:30.484Z,13.94928
2019-05-06T13:26:20.109Z,13.94928
2019-05-06T13:27:00.148Z,13.868713
2019-05-06T13:27:50.442Z,13.838501
2019-05-06T13:28:50.970Z,13.808289
2019-05-06T13:30:41.087Z,13.747864
2019-05-06T13:34:50.431Z,13.788147
2019-05-06T13:35:50.436Z,13.788147
2019-05-06T13:36:50.712Z,13.788147
2019-05-06T13:40:00.016Z,13.778076
2019-05-06T13:41:01.204Z,13.778076
2019-05-06T13:42:50.357Z,13.768005
2019-05-06T13:43:51.207Z,13.768005
2019-05-06T13:44:40.422Z,13.768005
2019-05-06T13:45:40.140Z,13.747864
2019-05-06T13:47:30.122Z,13.778076
2019-05-06T13:48:29.981Z,13.707581
2019-05-06T13:49:20.292Z,13.687439
2019-05-06T13:51:20.789Z,13.566589
2019-05-06T13:52:20.571Z,13.536377
2019-05-06T13:54:20.028Z,13.475952
2019-05-06T13:55:19.883Z,13.385315
2019-05-06T13:56:09.936Z,13.375244
2019-05-06T13:57:10.063Z,13.355103
2019-05-06T13:58:10.174Z,13.355103
2019-05-06T13:59:10.291Z,13.375244
2019-05-06T14:00:11.208Z,13.334961
2019-05-06T14:04:21.052Z,13.355103
2019-05-06T14:05:09.932Z,13.355103
2019-05-06T14:06:10.003Z,13.375244
2019-05-06T14:07:21.220Z,13.334961
2019-05-06T14:08:10.826Z,13.355103
2019-05-06T14:09:24.789Z,13.375244
2019-05-06T14:10:10.901Z,13.375244
2019-05-06T14:11:11.188Z,13.375244
2019-05-06T14:11:59.970Z,13.405457
2019-05-06T14:13:10.661Z,13.405457
2019-05-06T14:14:00.704Z,13.44574
2019-05-06T14:15:00.969Z,13.506165
2019-05-06T14:16:01.239Z,13.546448
2019-05-06T14:17:50.804Z,13.616943
2019-05-06T14:18:51.012Z,13.657227